Chunky, Mississippi
Current Conditions -  °F | °C
As of 2:58 AM on Thursday 18 Dec 2014 (Local Time) from KMEI Reporting Station
Clear Clear  
Wind Chill:   Ceiling: Unl
Heat Index:   Visibility: 10mi
Dew Point:   Wind: 0mph
Humidity: 89%   Direction: NA
Pressure: 30.22"   Gusts: NA
Location:  32.33°N, 88.93°W
Report Text: KMEI 180858Z AUTO 00000KT 10SM CLR 02/01 A3022 RMK AO2 SLP234 T00220006 50004
Loading
Personal Weather Stations






























Interactive Weather Map New forecast layout! Learn more

10-Day Weather Forecast

Advertisements
Track Severe Weather on mobile